createdAt,value
2023-01-17T00:02:05.872Z,95948.44
2023-01-17T00:04:51.817Z,95941.88
2023-01-17T00:07:39.784Z,95944.84
2023-01-17T00:10:11.102Z,95950.16
2023-01-17T00:12:40.501Z,95952.97
2023-01-17T00:15:12.013Z,95964.19
2023-01-17T00:17:39.925Z,95961.31
2023-01-17T00:20:26.762Z,95958.88
2023-01-17T00:23:12.031Z,95962.88
2023-01-17T00:25:59.673Z,95970.66
2023-01-17T00:28:27.973Z,95974.13
2023-01-17T00:30:54.867Z,95971.41
2023-01-17T00:33:23.038Z,95972.66
2023-01-17T00:35:50.954Z,95976.09
2023-01-17T00:38:19.553Z,95993.84
2023-01-17T00:40:47.769Z,95989.06
2023-01-17T00:43:34.558Z,95985.72
2023-01-17T00:46:21.524Z,95985.47
2023-01-17T00:49:06.668Z,95993.56
2023-01-17T00:51:53.726Z,95996.84
2023-01-17T00:54:39.451Z,95995.22
2023-01-17T00:57:25.314Z,95999.06
2023-01-17T01:00:10.947Z,96005.91
2023-01-17T01:02:57.896Z,96009.88
2023-01-17T01:05:43.579Z,96016.09
2023-01-17T01:08:36.776Z,96028.50
2023-01-17T01:11:24.639Z,96025.78
2023-01-17T01:14:12.305Z,96034.25
2023-01-17T01:16:57.398Z,96036.22
2023-01-17T01:19:43.938Z,96038.81
2023-01-17T01:22:29.039Z,96038.03
2023-01-17T01:25:16.946Z,96043.81
2023-01-17T01:28:01.962Z,96042.28
2023-01-17T01:30:49.828Z,96043.94
2023-01-17T01:33:19.471Z,96048.00
2023-01-17T01:35:50.566Z,96047.84
2023-01-17T01:38:19.186Z,96045.53
2023-01-17T01:40:49.230Z,96044.75
2023-01-17T01:43:19.848Z,96037.53
2023-01-17T01:45:53.196Z,96043.91
2023-01-17T01:48:32.869Z,96041.41
2023-01-17T01:51:04.774Z,96037.28
2023-01-17T01:53:36.504Z,96041.44
2023-01-17T01:56:07.134Z,96045.44
2023-01-17T01:58:37.786Z,96044.38
2023-01-17T02:01:06.598Z,96048.22
2023-01-17T02:03:35.496Z,96049.44
2023-01-17T02:06:15.352Z,96052.47
2023-01-17T02:08:45.805Z,96050.00
2023-01-17T02:11:14.069Z,96056.34
2023-01-17T02:13:42.482Z,96039.81
2023-01-17T02:16:22.484Z,96044.50
2023-01-17T02:19:00.711Z,96045.03
2023-01-17T02:21:35.747Z,96046.16
2023-01-17T02:24:44.070Z,96045.88
2023-01-17T02:27:26.273Z,96047.41
2023-01-17T02:30:18.255Z,96041.75
2023-01-17T02:32:54.612Z,96041.63
2023-01-17T02:35:30.790Z,96031.72
2023-01-17T02:38:08.287Z,96027.44
2023-01-17T02:40:41.635Z,96037.22
2023-01-17T02:43:14.895Z,96035.97
2023-01-17T02:45:45.505Z,96044.50
2023-01-17T02:48:15.987Z,96034.88
2023-01-17T02:51:08.261Z,96038.72
2023-01-17T02:53:49.077Z,96037.22
2023-01-17T02:56:32.607Z,96036.53
2023-01-17T02:59:13.169Z,96036.78
2023-01-17T03:01:52.078Z,96032.13
2023-01-17T03:04:25.213Z,96034.06
2023-01-17T03:06:57.903Z,96025.25
2023-01-17T03:09:27.439Z,96029.38
2023-01-17T03:11:55.982Z,96024.69
2023-01-17T03:14:23.741Z,96028.00
2023-01-17T03:16:53.917Z,96029.38
2023-01-17T03:19:21.700Z,96028.81
2023-01-17T03:21:50.250Z,96044.75
2023-01-17T03:24:18.095Z,96034.88
2023-01-17T03:26:47.713Z,96036.53
2023-01-17T03:29:16.413Z,96034.63
2023-01-17T03:31:44.263Z,96047.81
2023-01-17T03:34:13.546Z,96048.22
2023-01-17T03:36:44.378Z,96049.72
2023-01-17T03:39:14.757Z,96059.63
2023-01-17T03:41:42.513Z,96063.50
2023-01-17T03:44:10.390Z,96057.44
2023-01-17T03:46:40.234Z,96061.59
2023-01-17T03:49:08.117Z,96074.16
2023-01-17T03:51:37.193Z,96080.75
2023-01-17T03:54:05.238Z,96077.44
2023-01-17T03:56:33.151Z,96067.59
2023-01-17T03:59:00.965Z,96068.34
2023-01-17T04:01:28.816Z,96068.44
2023-01-17T04:03:56.618Z,96061.53
2023-01-17T04:06:24.425Z,96056.22
2023-01-17T04:08:53.642Z,96048.72
2023-01-17T04:11:21.540Z,96047.41
2023-01-17T04:13:49.371Z,96056.72
2023-01-17T04:16:19.059Z,96046.31
2023-01-17T04:18:46.923Z,96057.28
2023-01-17T04:21:16.854Z,96064.03
2023-01-17T04:23:44.704Z,96057.00
2023-01-17T04:26:14.326Z,96051.91
2023-01-17T04:28:42.102Z,96058.25
2023-01-17T04:31:15.173Z,96058.66
2023-01-17T04:33:43.062Z,96062.13
2023-01-17T04:36:11.208Z,96054.94
2023-01-17T04:38:39.051Z,96057.44
2023-01-17T04:41:06.868Z,96062.00
2023-01-17T04:43:36.232Z,96055.72
2023-01-17T04:46:04.966Z,96065.91
2023-01-17T04:48:33.274Z,96061.94
2023-01-17T04:51:01.597Z,96072.06
2023-01-17T04:53:29.671Z,96073.31
2023-01-17T04:55:57.835Z,96074.44
2023-01-17T04:58:25.653Z,96074.97
2023-01-17T05:00:54.918Z,96080.63
2023-01-17T05:03:24.139Z,96079.34
2023-01-17T05:05:51.880Z,96075.50
2023-01-17T05:08:19.717Z,96072.19
2023-01-17T05:10:49.584Z,96073.53
2023-01-17T05:13:17.494Z,96067.53
2023-01-17T05:15:45.572Z,96076.50
2023-01-17T05:18:15.706Z,96071.09
2023-01-17T05:20:43.747Z,96061.06
2023-01-17T05:23:11.930Z,96064.09
2023-01-17T05:25:44.383Z,96057.19
2023-01-17T05:28:15.033Z,96055.84
2023-01-17T05:30:42.848Z,96049.34
2023-01-17T05:33:11.226Z,96048.97
2023-01-17T05:35:40.384Z,96044.88
2023-01-17T05:38:08.171Z,96043.34
2023-01-17T05:40:36.378Z,96044.03
2023-01-17T05:43:04.888Z,96049.41
2023-01-17T05:45:34.197Z,96054.44
2023-01-17T05:48:02.646Z,96057.50
2023-01-17T05:50:32.069Z,96054.56
2023-01-17T05:53:03.642Z,96055.72
2023-01-17T05:55:32.268Z,96055.16
2023-01-17T05:58:00.571Z,96051.09
2023-01-17T06:00:29.245Z,96046.44
2023-01-17T06:02:58.573Z,96037.78
2023-01-17T06:05:27.445Z,96038.31
2023-01-17T06:07:56.517Z,96037.44
2023-01-17T06:10:26.666Z,96032.91
2023-01-17T06:13:02.582Z,96033.00
2023-01-17T06:15:30.712Z,96019.22
2023-01-17T06:17:58.537Z,96016.16
2023-01-17T06:20:27.386Z,96007.66
2023-01-17T06:22:55.338Z,96000.34
2023-01-17T06:25:23.153Z,95995.63
2023-01-17T06:27:55.345Z,95993.41
2023-01-17T06:30:23.274Z,95990.44
2023-01-17T06:32:54.034Z,95996.53
2023-01-17T06:35:21.917Z,95993.28
2023-01-17T06:37:52.143Z,95997.16
2023-01-17T06:40:20.789Z,95994.09
2023-01-17T06:42:48.656Z,95998.22
2023-01-17T06:45:18.094Z,96003.44
2023-01-17T06:47:46.260Z,96006.31
2023-01-17T06:50:15.798Z,96000.19
2023-01-17T06:52:44.086Z,96004.34
2023-01-17T06:55:14.072Z,96003.13
2023-01-17T06:57:41.915Z,96009.94
2023-01-17T07:00:13.514Z,96009.53
2023-01-17T07:02:42.729Z,96008.53
2023-01-17T07:05:11.083Z,96004.53
2023-01-17T07:07:38.954Z,96003.44
2023-01-17T07:10:07.332Z,96000.19
2023-01-17T07:12:35.246Z,95995.38
2023-01-17T07:15:03.146Z,96000.28
2023-01-17T07:17:30.994Z,95993.41
2023-01-17T07:20:00.235Z,95988.19
2023-01-17T07:22:28.416Z,95983.94
2023-01-17T07:24:59.544Z,95981.94
2023-01-17T07:27:27.813Z,95986.47
2023-01-17T07:29:55.767Z,95980.25
2023-01-17T07:32:25.887Z,95978.28
2023-01-17T07:34:53.772Z,95974.97
2023-01-17T07:37:23.012Z,95977.25
2023-01-17T07:39:50.955Z,95967.53
2023-01-17T07:42:18.795Z,95972.06
2023-01-17T07:44:46.749Z,95966.69
2023-01-17T07:47:14.671Z,95961.75
2023-01-17T07:49:42.479Z,95966.09
2023-01-17T07:52:10.641Z,95961.63
2023-01-17T07:54:39.865Z,95967.59
2023-01-17T07:57:12.447Z,95966.13
2023-01-17T07:59:40.374Z,95964.50
2023-01-17T08:02:10.007Z,95962.78
2023-01-17T08:04:37.832Z,95960.41
2023-01-17T08:07:05.736Z,95956.75
2023-01-17T08:09:33.539Z,95959.78
2023-01-17T08:12:02.758Z,95959.06
2023-01-17T08:14:30.572Z,95960.66
2023-01-17T08:17:05.138Z,95959.28
2023-01-17T08:19:33.092Z,95958.34
2023-01-17T08:22:00.854Z,95961.53
2023-01-17T08:24:28.701Z,95957.88
2023-01-17T08:26:57.261Z,95969.63
2023-01-17T08:29:26.558Z,95962.72
2023-01-17T08:31:54.448Z,95962.19
2023-01-17T08:34:22.427Z,95955.22
2023-01-17T08:36:50.492Z,95962.94
2023-01-17T08:39:18.698Z,95958.69
2023-01-17T08:41:46.819Z,95969.94
2023-01-17T08:44:15.776Z,95963.06
2023-01-17T08:46:45.238Z,95966.09
2023-01-17T08:49:13.674Z,95964.69
2023-01-17T08:51:41.574Z,95966.38
2023-01-17T08:54:12.946Z,95950.94
2023-01-17T08:56:42.734Z,95949.56
2023-01-17T08:59:11.993Z,95944.56
2023-01-17T09:01:41.870Z,95946.72
2023-01-17T09:04:11.774Z,95940.59
2023-01-17T09:06:41.149Z,95947.94
2023-01-17T09:09:10.992Z,95944.31
2023-01-17T09:11:39.455Z,95943.31
2023-01-17T09:14:07.344Z,95941.41
2023-01-17T09:16:35.557Z,95935.81
2023-01-17T09:19:03.465Z,95929.81
2023-01-17T09:21:32.780Z,95934.44
2023-01-17T09:24:00.625Z,95933.50
2023-01-17T09:26:30.466Z,95936.38
2023-01-17T09:29:01.300Z,95933.84
2023-01-17T09:31:29.265Z,95934.09
2023-01-17T09:33:58.990Z,95921.06
2023-01-17T09:36:29.102Z,95922.75
2023-01-17T09:39:02.378Z,95920.28
2023-01-17T09:41:33.177Z,95913.97
2023-01-17T09:44:08.304Z,95909.78
2023-01-17T09:46:41.341Z,95902.59
2023-01-17T09:49:14.566Z,95902.63
2023-01-17T09:51:43.248Z,95904.66
2023-01-17T09:54:22.843Z,95901.34
2023-01-17T09:57:01.374Z,95911.16
2023-01-17T09:59:38.852Z,95907.66
2023-01-17T10:02:26.700Z,95900.16
2023-01-17T10:05:16.349Z,95911.41
2023-01-17T10:07:56.198Z,95909.63
2023-01-17T10:10:38.519Z,95903.84
2023-01-17T10:13:17.727Z,95906.84
2023-01-17T10:16:09.758Z,95895.59
2023-01-17T10:19:03.789Z,95896.72
2023-01-17T10:21:42.865Z,95893.66
2023-01-17T10:24:34.585Z,95890.66
2023-01-17T10:27:11.362Z,95888.50
2023-01-17T10:29:41.150Z,95887.16
2023-01-17T10:32:12.472Z,95881.38
2023-01-17T10:34:45.354Z,95882.03
2023-01-17T10:37:22.160Z,95878.81
2023-01-17T10:39:51.881Z,95874.81
2023-01-17T10:42:26.806Z,95873.19
2023-01-17T10:45:02.802Z,95871.41
2023-01-17T10:47:33.934Z,95880.84
2023-01-17T10:50:05.205Z,95872.72
2023-01-17T10:52:45.268Z,95872.72
2023-01-17T10:55:28.367Z,95864.22
2023-01-17T10:57:59.871Z,95861.66
2023-01-17T11:00:43.982Z,95856.56
2023-01-17T11:03:13.358Z,95854.09
2023-01-17T11:05:42.949Z,95852.75
2023-01-17T11:08:13.453Z,95857.41
2023-01-17T11:10:44.618Z,95855.38
2023-01-17T11:13:27.412Z,95840.94
2023-01-17T11:15:57.768Z,95847.75
2023-01-17T11:18:29.010Z,95851.78
2023-01-17T11:21:11.335Z,95853.72
2023-01-17T11:23:42.004Z,95848.19
2023-01-17T11:26:12.973Z,95837.31
2023-01-17T11:28:42.329Z,95827.13
2023-01-17T11:31:26.014Z,95822.41
2023-01-17T11:34:09.073Z,95799.69
2023-01-17T11:36:36.989Z,95800.63
2023-01-17T11:39:06.919Z,95802.34
2023-01-17T11:41:37.872Z,95794.63
2023-01-17T11:44:24.247Z,95795.06
2023-01-17T11:47:10.063Z,95802.50
2023-01-17T11:49:37.986Z,95807.97
2023-01-17T11:52:10.103Z,95803.13
2023-01-17T11:54:42.503Z,95785.75
2023-01-17T11:57:23.544Z,95792.22
2023-01-17T11:59:58.093Z,95779.69
2023-01-17T12:03:19.949Z,95777.47
2023-01-17T12:05:57.012Z,95757.81
2023-01-17T12:08:46.068Z,95752.28
2023-01-17T12:11:19.859Z,95740.41
2023-01-17T12:14:02.495Z,95732.31
2023-01-17T12:16:45.004Z,95735.75
2023-01-17T12:19:36.527Z,95733.47
2023-01-17T12:22:22.532Z,95732.78
2023-01-17T12:25:06.946Z,95726.25
2023-01-17T12:27:44.330Z,95721.03
2023-01-17T12:30:31.713Z,95722.25
2023-01-17T12:33:21.321Z,95713.09
2023-01-17T12:35:52.942Z,95713.88
2023-01-17T12:38:32.786Z,95697.59
2023-01-17T12:41:07.687Z,95704.41
2023-01-17T12:43:38.485Z,95697.66
2023-01-17T12:46:13.749Z,95703.91
2023-01-17T12:48:43.002Z,95689.81
2023-01-17T12:51:16.695Z,95683.03
2023-01-17T12:53:51.018Z,95680.78
2023-01-17T12:56:25.655Z,95669.03
2023-01-17T12:58:57.177Z,95677.03
2023-01-17T13:01:30.648Z,95666.84
2023-01-17T13:04:11.682Z,95658.75
2023-01-17T13:06:53.053Z,95653.97
2023-01-17T13:09:23.649Z,95654.06
2023-01-17T13:11:55.334Z,95643.69
2023-01-17T13:14:23.399Z,95646.00
2023-01-17T13:16:57.803Z,95646.81
2023-01-17T13:19:35.734Z,95659.66
2023-01-17T13:22:07.574Z,95659.63
2023-01-17T13:24:49.059Z,95656.66
2023-01-17T13:28:01.670Z,95653.16
2023-01-17T13:30:57.621Z,95647.16
2023-01-17T13:33:42.606Z,95646.13
2023-01-17T13:36:28.414Z,95646.13
2023-01-17T13:39:08.713Z,95640.53
2023-01-17T13:41:43.488Z,95640.06
2023-01-17T13:44:22.839Z,95642.00
2023-01-17T13:47:06.671Z,95638.56
2023-01-17T13:49:48.414Z,95645.66
2023-01-17T13:52:35.718Z,95639.31
2023-01-17T13:55:04.999Z,95632.56
2023-01-17T13:57:43.581Z,95647.63
2023-01-17T14:00:58.970Z,95649.63
2023-01-17T14:04:05.231Z,95639.72
2023-01-17T14:06:40.518Z,95642.63
2023-01-17T14:09:20.155Z,95643.69
2023-01-17T14:12:03.982Z,95651.22
2023-01-17T14:14:55.561Z,95653.66
2023-01-17T14:17:51.555Z,95652.28
2023-01-17T14:20:44.732Z,95661.00
2023-01-17T14:23:27.222Z,95661.69
2023-01-17T14:26:00.252Z,95662.13
2023-01-17T14:28:32.475Z,95659.84
2023-01-17T14:31:03.343Z,95662.78
2023-01-17T14:33:37.039Z,95653.78
2023-01-17T14:36:06.886Z,95651.19
2023-01-17T14:38:42.026Z,95649.13
2023-01-17T14:41:16.444Z,95654.28
2023-01-17T14:43:45.333Z,95655.69
2023-01-17T14:46:19.537Z,95647.78
2023-01-17T14:48:47.765Z,95647.66
2023-01-17T14:51:22.633Z,95652.50
2023-01-17T14:53:55.176Z,95645.59
2023-01-17T14:56:25.830Z,95642.94
2023-01-17T14:59:07.915Z,95638.56
2023-01-17T15:01:36.732Z,95646.81
2023-01-17T15:04:04.690Z,95642.97
2023-01-17T15:06:39.246Z,95643.34
2023-01-17T15:09:11.924Z,95646.09
2023-01-17T15:11:42.226Z,95648.09
2023-01-17T15:14:21.575Z,95644.38
2023-01-17T15:16:52.108Z,95646.09
2023-01-17T15:19:21.803Z,95635.09
2023-01-17T15:21:52.766Z,95633.38
2023-01-17T15:24:22.920Z,95642.03
2023-01-17T15:26:52.334Z,95640.47
2023-01-17T15:29:25.836Z,95637.09
2023-01-17T15:31:55.471Z,95639.00
2023-01-17T15:34:29.398Z,95642.00
2023-01-17T15:37:00.039Z,95636.53
2023-01-17T15:39:30.798Z,95641.59
2023-01-17T15:42:01.866Z,95645.56
2023-01-17T15:44:46.743Z,95643.25
2023-01-17T15:47:28.789Z,95639.59
2023-01-17T15:49:57.270Z,95634.44
2023-01-17T15:52:28.615Z,95634.94
2023-01-17T15:55:00.619Z,95638.63
2023-01-17T15:57:36.693Z,95638.22
2023-01-17T16:00:07.831Z,95644.53
2023-01-17T16:02:43.384Z,95637.41
2023-01-17T16:05:38.595Z,95644.63
2023-01-17T16:08:29.592Z,95640.81
2023-01-17T16:11:02.140Z,95645.94
2023-01-17T16:13:33.482Z,95639.88
2023-01-17T16:16:12.860Z,95644.38
2023-01-17T16:18:41.473Z,95653.63
2023-01-17T16:21:18.852Z,95654.34
2023-01-17T16:23:46.923Z,95658.78
2023-01-17T16:26:15.206Z,95658.19
2023-01-17T16:28:44.684Z,95660.13
2023-01-17T16:31:13.111Z,95663.13
2023-01-17T16:33:42.317Z,95661.59
2023-01-17T16:36:15.876Z,95666.50
2023-01-17T16:38:44.572Z,95662.44
2023-01-17T16:41:12.442Z,95663.22
2023-01-17T16:43:40.336Z,95661.84
2023-01-17T16:46:11.869Z,95669.06
2023-01-17T16:48:39.889Z,95658.41
2023-01-17T16:51:08.876Z,95667.75
2023-01-17T16:53:37.387Z,95664.31
2023-01-17T16:56:11.977Z,95666.50
2023-01-17T16:58:40.290Z,95666.63
2023-01-17T17:01:15.512Z,95669.31
2023-01-17T17:03:44.010Z,95669.47
2023-01-17T17:06:12.345Z,95670.09
2023-01-17T17:08:40.632Z,95672.31
2023-01-17T17:11:13.258Z,95677.19
2023-01-17T17:13:44.878Z,95682.03
2023-01-17T17:16:16.550Z,95676.94
2023-01-17T17:18:45.319Z,95674.13
2023-01-17T17:21:13.785Z,95674.88
2023-01-17T17:23:41.746Z,95676.66
2023-01-17T17:26:09.798Z,95674.78
2023-01-17T17:28:37.626Z,95675.03
2023-01-17T17:31:08.077Z,95678.00
2023-01-17T17:33:37.538Z,95686.44
2023-01-17T17:36:07.583Z,95689.38
2023-01-17T17:38:36.004Z,95691.56
2023-01-17T17:41:09.399Z,95694.41
2023-01-17T17:43:38.727Z,95711.41
2023-01-17T17:46:07.666Z,95701.25
2023-01-17T17:48:37.328Z,95714.03
2023-01-17T17:51:06.302Z,95726.44
2023-01-17T17:53:35.009Z,95734.22
2023-01-17T17:56:07.428Z,95741.78
2023-01-17T17:58:36.707Z,95736.38
2023-01-17T18:01:07.664Z,95743.75
2023-01-17T18:03:37.241Z,95756.59
2023-01-17T18:06:06.882Z,95750.94
2023-01-17T18:08:35.820Z,95757.16
2023-01-17T18:11:05.950Z,95745.56
2023-01-17T18:13:34.627Z,95748.31
2023-01-17T18:16:05.564Z,95748.25
2023-01-17T18:18:33.617Z,95754.28
2023-01-17T18:21:12.327Z,95749.34
2023-01-17T18:23:41.531Z,95754.41
2023-01-17T18:26:17.065Z,95746.28
2023-01-17T18:28:45.524Z,95748.44
2023-01-17T18:31:13.601Z,95756.94
2023-01-17T18:33:41.875Z,95757.25
2023-01-17T18:36:14.203Z,95763.44
2023-01-17T18:38:44.035Z,95758.34
2023-01-17T18:41:13.849Z,95768.53
2023-01-17T18:43:42.584Z,95764.94
2023-01-17T18:46:11.821Z,95767.13
2023-01-17T18:48:41.581Z,95766.84
2023-01-17T18:51:11.321Z,95765.63
2023-01-17T18:53:42.281Z,95767.06
2023-01-17T18:56:12.091Z,95765.41
2023-01-17T18:58:41.987Z,95765.50
2023-01-17T19:01:11.601Z,95754.88
2023-01-17T19:03:40.481Z,95759.69
2023-01-17T19:06:10.783Z,95757.53
2023-01-17T19:08:40.157Z,95763.72
2023-01-17T19:11:08.670Z,95759.88
2023-01-17T19:13:37.790Z,95768.00
2023-01-17T19:16:12.266Z,95768.19
2023-01-17T19:18:40.319Z,95771.47
2023-01-17T19:21:10.117Z,95777.13
2023-01-17T19:23:40.145Z,95779.44
2023-01-17T19:26:10.208Z,95781.78
2023-01-17T19:28:40.648Z,95779.47
2023-01-17T19:31:10.873Z,95785.75
2023-01-17T19:33:40.649Z,95791.66
2023-01-17T19:36:10.698Z,95785.75
2023-01-17T19:38:47.318Z,95791.25
2023-01-17T19:41:20.180Z,95792.88
2023-01-17T19:43:48.516Z,95784.19
2023-01-17T19:46:18.894Z,95789.16
2023-01-17T19:48:47.079Z,95789.81
2023-01-17T19:51:16.699Z,95791.38
2023-01-17T19:53:46.005Z,95784.31
2023-01-17T19:56:15.833Z,95784.63
2023-01-17T19:58:45.307Z,95782.31
2023-01-17T20:01:15.426Z,95778.44
2023-01-17T20:03:45.266Z,95778.00
2023-01-17T20:06:14.695Z,95776.22
2023-01-17T20:08:46.318Z,95776.22
2023-01-17T20:11:19.625Z,95776.63
2023-01-17T20:13:47.833Z,95773.31
2023-01-17T20:16:17.669Z,95774.09
2023-01-17T20:18:45.850Z,95774.94
2023-01-17T20:21:17.212Z,95769.16
2023-01-17T20:23:50.204Z,95775.06
2023-01-17T20:26:20.668Z,95775.81
2023-01-17T20:28:51.296Z,95778.06
2023-01-17T20:31:21.489Z,95776.13
2023-01-17T20:33:51.286Z,95781.19
2023-01-17T20:36:20.625Z,95780.00
2023-01-17T20:38:50.196Z,95790.56
2023-01-17T20:41:20.530Z,95774.97
2023-01-17T20:43:49.730Z,95779.81
2023-01-17T20:46:18.909Z,95785.19
2023-01-17T20:48:48.690Z,95779.56
2023-01-17T20:51:17.154Z,95775.16
2023-01-17T20:53:46.451Z,95768.38
2023-01-17T20:56:17.173Z,95767.84
2023-01-17T20:58:47.554Z,95771.91
2023-01-17T21:01:21.073Z,95779.09
2023-01-17T21:03:51.633Z,95778.66
2023-01-17T21:06:20.664Z,95776.16
2023-01-17T21:08:49.069Z,95777.94
2023-01-17T21:11:19.949Z,95776.56
2023-01-17T21:13:48.672Z,95781.16
2023-01-17T21:16:17.848Z,95779.81
2023-01-17T21:18:48.054Z,95780.09
2023-01-17T21:21:19.066Z,95781.44
2023-01-17T21:23:47.075Z,95775.69
2023-01-17T21:26:16.660Z,95778.41
2023-01-17T21:28:47.869Z,95783.16
2023-01-17T21:31:20.515Z,95786.19
2023-01-17T21:33:48.965Z,95785.91
2023-01-17T21:36:17.429Z,95784.91
2023-01-17T21:38:49.827Z,95780.13
2023-01-17T21:41:18.014Z,95785.22
2023-01-17T21:43:54.633Z,95781.00
2023-01-17T21:46:22.761Z,95776.16
2023-01-17T21:48:50.930Z,95781.94
2023-01-17T21:51:21.910Z,95782.97
2023-01-17T21:53:49.976Z,95784.38
2023-01-17T21:56:35.259Z,95786.75
2023-01-17T21:59:06.884Z,95783.31
2023-01-17T22:01:34.891Z,95789.75
2023-01-17T22:04:04.654Z,95788.06
2023-01-17T22:06:35.414Z,95794.38
2023-01-17T22:09:04.545Z,95788.34
2023-01-17T22:11:32.720Z,95787.09
2023-01-17T22:14:02.553Z,95787.16
2023-01-17T22:16:32.028Z,95787.22
2023-01-17T22:19:00.021Z,95786.59
2023-01-17T22:21:30.406Z,95784.03
2023-01-17T22:24:00.069Z,95786.47
2023-01-17T22:26:29.967Z,95782.38
2023-01-17T22:29:02.476Z,95783.09
2023-01-17T22:31:35.356Z,95779.00
2023-01-17T22:34:05.368Z,95779.16
2023-01-17T22:36:34.932Z,95772.38
2023-01-17T22:39:03.281Z,95773.06
2023-01-17T22:41:32.871Z,95772.44
2023-01-17T22:44:03.143Z,95769.00
2023-01-17T22:46:33.385Z,95774.72
2023-01-17T22:49:02.932Z,95774.88
2023-01-17T22:51:30.815Z,95774.72
2023-01-17T22:54:00.817Z,95778.72
2023-01-17T22:56:30.528Z,95774.63
2023-01-17T22:58:58.964Z,95784.41
2023-01-17T23:01:29.210Z,95776.50
2023-01-17T23:03:58.756Z,95782.59
2023-01-17T23:06:30.339Z,95785.66
2023-01-17T23:09:00.603Z,95772.63
2023-01-17T23:11:43.787Z,95774.59
2023-01-17T23:14:17.328Z,95769.84
2023-01-17T23:17:05.565Z,95771.78
2023-01-17T23:19:35.761Z,95767.44
2023-01-17T23:22:19.349Z,95762.25
2023-01-17T23:24:50.392Z,95769.25
2023-01-17T23:27:38.781Z,95760.84
2023-01-17T23:30:10.859Z,95767.69
2023-01-17T23:32:39.127Z,95763.22
2023-01-17T23:35:07.806Z,95764.66
2023-01-17T23:37:54.236Z,95769.09
2023-01-17T23:40:22.252Z,95768.88
2023-01-17T23:43:06.676Z,95766.38
2023-01-17T23:45:35.736Z,95769.88
2023-01-17T23:48:05.456Z,95772.75
2023-01-17T23:50:34.276Z,95772.78
2023-01-17T23:53:07.049Z,95774.09
2023-01-17T23:55:36.481Z,95771.84
2023-01-17T23:58:04.555Z,95763.63
